Terminal Aerodrome Forecast
Issued by NWS

Home | Current Version | Previous Version | Graphics & Text | Print | Product List | Glossary On
Versions: 1 2 3 4 5 6 7 8 9 10 11 12
000
FTUS42 KMHX 182334
TAFOAJ
TAF
KOAJ 182334Z 1900/1924 19011KT P6SM SCT040
     FM190500 21013G23KT P6SM SCT040
     FM190900 24013G23KT P6SM VCSH SCT020 BKN035
      TEMPO 1912/1914 5SM -RA BKN020
     FM191400 31013G21KT P6SM SCT040
     FM192000 31008KT P6SM SKC
      AMD LTD TO CLD VIS AND WIND=

USA.gov is the U.S. government's official web portal to all federal, state and local government web resources and services.